sensor_id;sensor_type;location;lat;lon;timestamp;temperature;humidity
28761;DHT22;15917;50.014;8.352;2024-01-10T00:01:28;-2.10;99.90
28761;DHT22;15917;50.014;8.352;2024-01-10T00:03:54;-2.10;99.90
28761;DHT22;15917;50.014;8.352;2024-01-10T00:06:20;-2.20;99.90
28761;DHT22;15917;50.014;8.352;2024-01-10T00:08:46;-2.20;99.90
28761;DHT22;15917;50.014;8.352;2024-01-10T00:11:11;-2.20;99.90
28761;DHT22;15917;50.014;8.352;2024-01-10T00:13:37;-2.30;99.90
28761;DHT22;15917;50.014;8.352;2024-01-10T00:16:04;-2.30;99.90
28761;DHT22;15917;50.014;8.352;2024-01-10T00:18:29;-2.30;99.90
28761;DHT22;15917;50.014;8.352;2024-01-10T00:20:55;-2.30;99.90
28761;DHT22;15917;50.014;8.352;2024-01-10T00:23:21;-2.30;99.90
28761;DHT22;15917;50.014;8.352;2024-01-10T00:25:47;-2.40;99.90
28761;DHT22;15917;50.014;8.352;2024-01-10T00:28:13;-2.40;99.90
28761;DHT22;15917;50.014;8.352;2024-01-10T00:30:39;-2.40;99.90
28761;DHT22;15917;50.014;8.352;2024-01-10T00:33:05;-2.40;99.90
28761;DHT22;15917;50.014;8.352;2024-01-10T00:35:31;-2.40;99.90
28761;DHT22;15917;50.014;8.352;2024-01-10T00:37:57;-2.50;99.90
28761;DHT22;15917;50.014;8.352;2024-01-10T00:40:23;-2.50;99.90
28761;DHT22;15917;50.014;8.352;2024-01-10T00:42:49;-2.50;99.90
28761;DHT22;15917;50.014;8.352;2024-01-10T00:45:16;-2.60;99.90
28761;DHT22;15917;50.014;8.352;2024-01-10T00:47:41;-2.60;99.90
28761;DHT22;15917;50.014;8.352;2024-01-10T00:50:08;-2.60;99.90
28761;DHT22;15917;50.014;8.352;2024-01-10T00:52:34;-2.60;99.90
28761;DHT22;15917;50.014;8.352;2024-01-10T00:54:59;-2.60;99.90
28761;DHT22;15917;50.014;8.352;2024-01-10T00:57:25;-2.70;99.90
28761;DHT22;15917;50.014;8.352;2024-01-10T00:59:50;-2.80;99.90
28761;DHT22;15917;50.014;8.352;2024-01-10T01:02:16;-2.90;99.90
28761;DHT22;15917;50.014;8.352;2024-01-10T01:04:42;-2.90;99.90
28761;DHT22;15917;50.014;8.352;2024-01-10T01:07:07;-2.90;99.90
28761;DHT22;15917;50.014;8.352;2024-01-10T01:09:34;-2.90;99.90
28761;DHT22;15917;50.014;8.352;2024-01-10T01:11:59;-3.00;99.90
28761;DHT22;15917;50.014;8.352;2024-01-10T01:14:25;-3.00;99.90
28761;DHT22;15917;50.014;8.352;2024-01-10T01:16:51;-3.00;99.90
28761;DHT22;15917;50.014;8.352;2024-01-10T01:19:17;-3.00;99.90
28761;DHT22;15917;50.014;8.352;2024-01-10T01:21:43;-3.00;99.90
28761;DHT22;15917;50.014;8.352;2024-01-10T01:24:09;-3.00;99.90
28761;DHT22;15917;50.014;8.352;2024-01-10T01:26:34;-3.00;99.90
28761;DHT22;15917;50.014;8.352;2024-01-10T01:29:00;-3.00;99.90
28761;DHT22;15917;50.014;8.352;2024-01-10T01:31:25;-3.00;99.90
28761;DHT22;15917;50.014;8.352;2024-01-10T01:33:51;-3.00;99.90
28761;DHT22;15917;50.014;8.352;2024-01-10T01:36:17;-3.00;99.90
28761;DHT22;15917;50.014;8.352;2024-01-10T01:38:43;-3.00;99.90
28761;DHT22;15917;50.014;8.352;2024-01-10T01:41:09;-3.00;99.90
28761;DHT22;15917;50.014;8.352;2024-01-10T01:43:34;-3.10;99.90
28761;DHT22;15917;50.014;8.352;2024-01-10T01:46:01;-3.00;99.90
28761;DHT22;15917;50.014;8.352;2024-01-10T01:48:27;-3.10;99.90
28761;DHT22;15917;50.014;8.352;2024-01-10T01:51:12;-3.10;99.90
28761;DHT22;15917;50.014;8.352;2024-01-10T01:53:40;-3.10;99.90
28761;DHT22;15917;50.014;8.352;2024-01-10T01:56:08;-3.10;99.90
28761;DHT22;15917;50.014;8.352;2024-01-10T01:58:35;-3.10;99.90
28761;DHT22;15917;50.014;8.352;2024-01-10T02:01:02;-3.10;99.90
28761;DHT22;15917;50.014;8.352;2024-01-10T02:03:29;-3.10;99.90
28761;DHT22;15917;50.014;8.352;2024-01-10T02:05:54;-3.10;99.90
28761;DHT22;15917;50.014;8.352;2024-01-10T02:08:20;-3.20;99.90
28761;DHT22;15917;50.014;8.352;2024-01-10T02:10:46;-3.20;99.90
28761;DHT22;15917;50.014;8.352;2024-01-10T02:13:11;-3.20;99.90
28761;DHT22;15917;50.014;8.352;2024-01-10T02:15:38;-3.20;99.90
28761;DHT22;15917;50.014;8.352;2024-01-10T02:18:04;-3.20;99.90
28761;DHT22;15917;50.014;8.352;2024-01-10T02:20:31;-3.20;99.90
28761;DHT22;15917;50.014;8.352;2024-01-10T02:22:57;-3.10;99.90
28761;DHT22;15917;50.014;8.352;2024-01-10T02:25:22;-3.20;99.90
28761;DHT22;15917;50.014;8.352;2024-01-10T02:27:48;-3.10;99.90
28761;DHT22;15917;50.014;8.352;2024-01-10T02:30:14;-3.20;99.90
28761;DHT22;15917;50.014;8.352;2024-01-10T02:32:40;-3.20;99.90
28761;DHT22;15917;50.014;8.352;2024-01-10T02:35:06;-3.20;99.90
28761;DHT22;15917;50.014;8.352;2024-01-10T02:37:32;-3.20;99.90
28761;DHT22;15917;50.014;8.352;2024-01-10T02:39:57;-3.20;99.90
28761;DHT22;15917;50.014;8.352;2024-01-10T02:42:23;-3.20;99.90
28761;DHT22;15917;50.014;8.352;2024-01-10T02:44:49;-3.30;99.90
28761;DHT22;15917;50.014;8.352;2024-01-10T02:47:14;-3.30;99.90
28761;DHT22;15917;50.014;8.352;2024-01-10T02:49:40;-3.20;99.90
28761;DHT22;15917;50.014;8.352;2024-01-10T02:52:06;-3.30;99.90
28761;DHT22;15917;50.014;8.352;2024-01-10T02:54:31;-3.30;99.90
28761;DHT22;15917;50.014;8.352;2024-01-10T02:56:57;-3.30;99.90
28761;DHT22;15917;50.014;8.352;2024-01-10T02:59:22;-3.20;99.90
28761;DHT22;15917;50.014;8.352;2024-01-10T03:01:48;-3.20;99.90
28761;DHT22;15917;50.014;8.352;2024-01-10T03:04:14;-3.20;99.90
28761;DHT22;15917;50.014;8.352;2024-01-10T03:06:39;-3.20;99.90
28761;DHT22;15917;50.014;8.352;2024-01-10T03:09:05;-3.20;99.90
28761;DHT22;15917;50.014;8.352;2024-01-10T03:11:31;-3.20;99.90
28761;DHT22;15917;50.014;8.352;2024-01-10T03:14:02;-3.20;99.90
28761;DHT22;15917;50.014;8.352;2024-01-10T03:16:32;-3.20;99.90
28761;DHT22;15917;50.014;8.352;2024-01-10T03:18:57;-3.20;99.90
28761;DHT22;15917;50.014;8.352;2024-01-10T03:21:23;-3.20;99.90
28761;DHT22;15917;50.014;8.352;2024-01-10T03:23:53;-3.10;99.90
28761;DHT22;15917;50.014;8.352;2024-01-10T03:26:18;-3.10;99.90
28761;DHT22;15917;50.014;8.352;2024-01-10T03:28:44;-3.10;99.90
28761;DHT22;15917;50.014;8.352;2024-01-10T03:31:10;-3.10;99.90
28761;DHT22;15917;50.014;8.352;2024-01-10T03:33:36;-3.10;99.90
28761;DHT22;15917;50.014;8.352;2024-01-10T03:36:02;-3.10;99.90
28761;DHT22;15917;50.014;8.352;2024-01-10T03:38:28;-3.20;99.90
28761;DHT22;15917;50.014;8.352;2024-01-10T03:40:54;-3.20;99.90
28761;DHT22;15917;50.014;8.352;2024-01-10T03:43:19;-3.20;99.90
28761;DHT22;15917;50.014;8.352;2024-01-10T03:45:45;-3.30;99.90
28761;DHT22;15917;50.014;8.352;2024-01-10T03:48:10;-3.30;99.90
28761;DHT22;15917;50.014;8.352;2024-01-10T03:50:36;-3.30;99.90
28761;DHT22;15917;50.014;8.352;2024-01-10T03:53:01;-3.30;99.90
28761;DHT22;15917;50.014;8.352;2024-01-10T03:55:27;-3.30;99.90
28761;DHT22;15917;50.014;8.352;2024-01-10T03:57:53;-3.30;99.90
28761;DHT22;15917;50.014;8.352;2024-01-10T04:00:18;-3.30;99.90
28761;DHT22;15917;50.014;8.352;2024-01-10T04:02:44;-3.20;99.90
28761;DHT22;15917;50.014;8.352;2024-01-10T04:05:10;-3.20;99.90
28761;DHT22;15917;50.014;8.352;2024-01-10T04:07:39;-3.20;99.90
28761;DHT22;15917;50.014;8.352;2024-01-10T04:10:05;-3.20;99.90
28761;DHT22;15917;50.014;8.352;2024-01-10T04:12:33;-3.10;99.90
28761;DHT22;15917;50.014;8.352;2024-01-10T04:14:58;-3.10;99.90
28761;DHT22;15917;50.014;8.352;2024-01-10T04:17:24;-3.20;99.90
28761;DHT22;15917;50.014;8.352;2024-01-10T04:19:49;-3.20;99.90
28761;DHT22;15917;50.014;8.352;2024-01-10T04:22:15;-3.20;99.90
28761;DHT22;15917;50.014;8.352;2024-01-10T04:24:41;-3.20;99.90
28761;DHT22;15917;50.014;8.352;2024-01-10T04:27:07;-3.10;99.90
28761;DHT22;15917;50.014;8.352;2024-01-10T04:29:33;-3.10;99.90
28761;DHT22;15917;50.014;8.352;2024-01-10T04:31:59;-3.00;99.90
28761;DHT22;15917;50.014;8.352;2024-01-10T04:34:24;-3.10;99.90
28761;DHT22;15917;50.014;8.352;2024-01-10T04:36:50;-3.00;99.90
28761;DHT22;15917;50.014;8.352;2024-01-10T04:39:15;-3.10;99.90
28761;DHT22;15917;50.014;8.352;2024-01-10T04:41:41;-3.00;99.90
28761;DHT22;15917;50.014;8.352;2024-01-10T04:44:07;-3.00;99.90
28761;DHT22;15917;50.014;8.352;2024-01-10T04:46:32;-3.00;99.90
28761;DHT22;15917;50.014;8.352;2024-01-10T04:48:59;-3.00;99.90
28761;DHT22;15917;50.014;8.352;2024-01-10T04:51:24;-3.00;99.90
28761;DHT22;15917;50.014;8.352;2024-01-10T04:53:50;-3.00;99.90
28761;DHT22;15917;50.014;8.352;2024-01-10T04:56:17;-3.00;99.90
28761;DHT22;15917;50.014;8.352;2024-01-10T04:58:43;-3.00;99.90
28761;DHT22;15917;50.014;8.352;2024-01-10T05:01:08;-2.90;99.90
28761;DHT22;15917;50.014;8.352;2024-01-10T05:03:34;-2.90;99.90
28761;DHT22;15917;50.014;8.352;2024-01-10T05:06:00;-2.90;99.90
28761;DHT22;15917;50.014;8.352;2024-01-10T05:08:26;-2.90;99.90
28761;DHT22;15917;50.014;8.352;2024-01-10T05:10:51;-2.90;99.90
28761;DHT22;15917;50.014;8.352;2024-01-10T05:13:17;-2.90;99.90
28761;DHT22;15917;50.014;8.352;2024-01-10T05:15:42;-2.90;99.90
28761;DHT22;15917;50.014;8.352;2024-01-10T05:18:08;-2.90;99.90
28761;DHT22;15917;50.014;8.352;2024-01-10T05:20:34;-2.90;99.90
28761;DHT22;15917;50.014;8.352;2024-01-10T05:22:59;-2.90;99.90
28761;DHT22;15917;50.014;8.352;2024-01-10T05:25:26;-3.00;99.90
28761;DHT22;15917;50.014;8.352;2024-01-10T05:27:52;-3.00;99.90
28761;DHT22;15917;50.014;8.352;2024-01-10T05:30:19;-2.90;99.90
28761;DHT22;15917;50.014;8.352;2024-01-10T05:32:44;-2.90;99.90
28761;DHT22;15917;50.014;8.352;2024-01-10T05:35:10;-3.00;99.90
28761;DHT22;15917;50.014;8.352;2024-01-10T05:37:36;-2.90;99.90
28761;DHT22;15917;50.014;8.352;2024-01-10T05:40:02;-3.00;99.90
28761;DHT22;15917;50.014;8.352;2024-01-10T05:42:30;-3.00;99.90
28761;DHT22;15917;50.014;8.352;2024-01-10T05:44:56;-3.00;99.90
28761;DHT22;15917;50.014;8.352;2024-01-10T05:47:21;-3.00;99.90
28761;DHT22;15917;50.014;8.352;2024-01-10T05:49:47;-2.90;99.90
28761;DHT22;15917;50.014;8.352;2024-01-10T05:52:12;-3.00;99.90
28761;DHT22;15917;50.014;8.352;2024-01-10T05:54:38;-2.90;99.90
28761;DHT22;15917;50.014;8.352;2024-01-10T05:57:04;-3.00;99.90
28761;DHT22;15917;50.014;8.352;2024-01-10T05:59:30;-2.90;99.90
28761;DHT22;15917;50.014;8.352;2024-01-10T06:01:56;-2.90;99.90
28761;DHT22;15917;50.014;8.352;2024-01-10T06:04:24;-2.90;99.90
28761;DHT22;15917;50.014;8.352;2024-01-10T06:06:49;-2.90;99.90
28761;DHT22;15917;50.014;8.352;2024-01-10T06:09:15;-3.00;99.90
28761;DHT22;15917;50.014;8.352;2024-01-10T06:11:47;-3.00;99.90
28761;DHT22;15917;50.014;8.352;2024-01-10T06:14:13;-2.90;99.90
28761;DHT22;15917;50.014;8.352;2024-01-10T06:16:39;-2.90;99.90
28761;DHT22;15917;50.014;8.352;2024-01-10T06:19:05;-2.90;99.90
28761;DHT22;15917;50.014;8.352;2024-01-10T06:21:31;-2.80;99.90
28761;DHT22;15917;50.014;8.352;2024-01-10T06:23:57;-3.00;99.90
28761;DHT22;15917;50.014;8.352;2024-01-10T06:26:23;-3.00;99.90
28761;DHT22;15917;50.014;8.352;2024-01-10T06:28:48;-2.90;99.90
28761;DHT22;15917;50.014;8.352;2024-01-10T06:31:14;-2.90;99.90
28761;DHT22;15917;50.014;8.352;2024-01-10T06:33:39;-2.90;99.90
28761;DHT22;15917;50.014;8.352;2024-01-10T06:36:05;-2.90;99.90
28761;DHT22;15917;50.014;8.352;2024-01-10T06:38:31;-2.90;99.90
28761;DHT22;15917;50.014;8.352;2024-01-10T06:40:56;-2.90;99.90
28761;DHT22;15917;50.014;8.352;2024-01-10T06:43:22;-2.90;99.90
28761;DHT22;15917;50.014;8.352;2024-01-10T06:45:48;-2.20;99.90
28761;DHT22;15917;50.014;8.352;2024-01-10T06:48:13;-0.50;99.90
28761;DHT22;15917;50.014;8.352;2024-01-10T06:50:40;1.10;99.90
28761;DHT22;15917;50.014;8.352;2024-01-10T06:53:05;0.60;99.90
28761;DHT22;15917;50.014;8.352;2024-01-10T06:55:31;-0.20;99.90
28761;DHT22;15917;50.014;8.352;2024-01-10T06:57:57;-1.00;99.90
28761;DHT22;15917;50.014;8.352;2024-01-10T07:00:22;-1.60;99.90
28761;DHT22;15917;50.014;8.352;2024-01-10T07:02:49;-2.00;99.90
28761;DHT22;15917;50.014;8.352;2024-01-10T07:05:15;-2.30;99.90
28761;DHT22;15917;50.014;8.352;2024-01-10T07:07:41;-2.50;99.90
28761;DHT22;15917;50.014;8.352;2024-01-10T07:10:07;-2.60;99.90
28761;DHT22;15917;50.014;8.352;2024-01-10T07:12:34;-2.60;99.90
28761;DHT22;15917;50.014;8.352;2024-01-10T07:15:00;-2.70;99.90
28761;DHT22;15917;50.014;8.352;2024-01-10T07:17:28;-2.70;99.90
28761;DHT22;15917;50.014;8.352;2024-01-10T07:19:54;-2.70;99.90
28761;DHT22;15917;50.014;8.352;2024-01-10T07:22:22;-2.70;99.90
28761;DHT22;15917;50.014;8.352;2024-01-10T07:24:48;-2.80;99.90
28761;DHT22;15917;50.014;8.352;2024-01-10T07:27:14;-2.80;99.90
28761;DHT22;15917;50.014;8.352;2024-01-10T07:29:40;-2.80;99.90
28761;DHT22;15917;50.014;8.352;2024-01-10T07:32:07;-2.90;99.90
28761;DHT22;15917;50.014;8.352;2024-01-10T07:34:37;-2.80;99.90
28761;DHT22;15917;50.014;8.352;2024-01-10T07:37:03;-2.80;99.90
28761;DHT22;15917;50.014;8.352;2024-01-10T07:39:28;-2.80;99.90
28761;DHT22;15917;50.014;8.352;2024-01-10T07:41:54;-2.90;99.90
28761;DHT22;15917;50.014;8.352;2024-01-10T07:44:20;-2.90;99.90
28761;DHT22;15917;50.014;8.352;2024-01-10T07:46:46;-2.90;99.90
28761;DHT22;15917;50.014;8.352;2024-01-10T07:49:11;-2.90;99.90
28761;DHT22;15917;50.014;8.352;2024-01-10T07:51:37;-2.90;99.90
28761;DHT22;15917;50.014;8.352;2024-01-10T07:54:03;-2.90;99.90
28761;DHT22;15917;50.014;8.352;2024-01-10T07:56:30;-2.80;99.90
28761;DHT22;15917;50.014;8.352;2024-01-10T07:58:55;-2.70;99.90
28761;DHT22;15917;50.014;8.352;2024-01-10T08:01:21;-2.70;99.90
28761;DHT22;15917;50.014;8.352;2024-01-10T08:03:47;-2.70;99.90
28761;DHT22;15917;50.014;8.352;2024-01-10T08:06:13;-2.70;99.90
28761;DHT22;15917;50.014;8.352;2024-01-10T08:08:39;-2.70;99.90
28761;DHT22;15917;50.014;8.352;2024-01-10T08:11:04;-2.70;99.90
28761;DHT22;15917;50.014;8.352;2024-01-10T08:13:31;-2.70;99.90
28761;DHT22;15917;50.014;8.352;2024-01-10T08:15:56;-2.70;99.90
28761;DHT22;15917;50.014;8.352;2024-01-10T08:18:23;-2.50;99.90
28761;DHT22;15917;50.014;8.352;2024-01-10T08:20:49;-2.50;99.90
28761;DHT22;15917;50.014;8.352;2024-01-10T08:23:15;-2.40;99.90
28761;DHT22;15917;50.014;8.352;2024-01-10T08:25:40;-2.40;99.90
28761;DHT22;15917;50.014;8.352;2024-01-10T08:28:06;-0.70;99.90
28761;DHT22;15917;50.014;8.352;2024-01-10T08:30:32;2.10;99.90
28761;DHT22;15917;50.014;8.352;2024-01-10T08:32:58;2.10;99.90
28761;DHT22;15917;50.014;8.352;2024-01-10T08:35:25;1.10;99.90
28761;DHT22;15917;50.014;8.352;2024-01-10T08:37:50;0.40;99.90
28761;DHT22;15917;50.014;8.352;2024-01-10T08:40:16;-0.30;99.90
28761;DHT22;15917;50.014;8.352;2024-01-10T08:42:42;-0.80;99.90
28761;DHT22;15917;50.014;8.352;2024-01-10T08:45:09;-1.10;99.90
28761;DHT22;15917;50.014;8.352;2024-01-10T08:47:36;-1.20;99.90
28761;DHT22;15917;50.014;8.352;2024-01-10T08:50:05;-1.30;99.90
28761;DHT22;15917;50.014;8.352;2024-01-10T08:52:34;-1.40;99.90
28761;DHT22;15917;50.014;8.352;2024-01-10T08:55:01;-1.40;99.90
28761;DHT22;15917;50.014;8.352;2024-01-10T08:57:26;-1.20;99.90
28761;DHT22;15917;50.014;8.352;2024-01-10T08:59:53;-1.10;99.90
28761;DHT22;15917;50.014;8.352;2024-01-10T09:02:19;-1.00;99.90
28761;DHT22;15917;50.014;8.352;2024-01-10T09:04:44;-0.90;99.90
28761;DHT22;15917;50.014;8.352;2024-01-10T09:07:10;-0.80;99.90
28761;DHT22;15917;50.014;8.352;2024-01-10T09:09:35;-0.50;99.90
28761;DHT22;15917;50.014;8.352;2024-01-10T09:12:01;-0.40;99.90
28761;DHT22;15917;50.014;8.352;2024-01-10T09:14:27;-0.20;99.90
28761;DHT22;15917;50.014;8.352;2024-01-10T09:16:53;0.10;99.90
28761;DHT22;15917;50.014;8.352;2024-01-10T09:19:19;0.30;99.90
28761;DHT22;15917;50.014;8.352;2024-01-10T09:21:45;0.30;99.90
28761;DHT22;15917;50.014;8.352;2024-01-10T09:24:11;0.40;99.90
28761;DHT22;15917;50.014;8.352;2024-01-10T09:26:40;0.50;99.90
28761;DHT22;15917;50.014;8.352;2024-01-10T09:29:06;0.40;99.90
28761;DHT22;15917;50.014;8.352;2024-01-10T09:31:32;0.30;99.90
28761;DHT22;15917;50.014;8.352;2024-01-10T09:33:57;0.10;99.90
28761;DHT22;15917;50.014;8.352;2024-01-10T09:36:23;0.00;99.90
28761;DHT22;15917;50.014;8.352;2024-01-10T09:38:49;-0.10;99.90
28761;DHT22;15917;50.014;8.352;2024-01-10T09:41:14;-0.20;99.90
28761;DHT22;15917;50.014;8.352;2024-01-10T09:43:41;-0.30;99.90
28761;DHT22;15917;50.014;8.352;2024-01-10T09:46:07;-0.40;99.90
28761;DHT22;15917;50.014;8.352;2024-01-10T09:48:33;-0.50;99.90
28761;DHT22;15917;50.014;8.352;2024-01-10T09:50:58;-0.50;99.90
28761;DHT22;15917;50.014;8.352;2024-01-10T09:53:25;-0.60;99.90
28761;DHT22;15917;50.014;8.352;2024-01-10T09:55:55;-0.60;99.90
28761;DHT22;15917;50.014;8.352;2024-01-10T09:58:26;-0.70;99.90
28761;DHT22;15917;50.014;8.352;2024-01-10T10:00:52;-0.80;99.90
28761;DHT22;15917;50.014;8.352;2024-01-10T10:03:19;-0.80;99.90
28761;DHT22;15917;50.014;8.352;2024-01-10T10:05:44;-0.80;99.90
28761;DHT22;15917;50.014;8.352;2024-01-10T10:08:12;-0.80;99.90
28761;DHT22;15917;50.014;8.352;2024-01-10T10:10:41;-0.80;99.90
28761;DHT22;15917;50.014;8.352;2024-01-10T10:13:10;-0.70;99.90
28761;DHT22;15917;50.014;8.352;2024-01-10T10:15:36;-0.80;99.90
28761;DHT22;15917;50.014;8.352;2024-01-10T10:18:02;-0.80;99.90
28761;DHT22;15917;50.014;8.352;2024-01-10T10:20:29;-0.80;99.90
28761;DHT22;15917;50.014;8.352;2024-01-10T10:23:07;-0.80;99.90
28761;DHT22;15917;50.014;8.352;2024-01-10T10:25:44;-0.80;99.90
28761;DHT22;15917;50.014;8.352;2024-01-10T10:28:09;-0.70;99.90
28761;DHT22;15917;50.014;8.352;2024-01-10T10:30:36;-0.70;99.90
28761;DHT22;15917;50.014;8.352;2024-01-10T10:33:02;-0.80;99.90
28761;DHT22;15917;50.014;8.352;2024-01-10T10:35:28;-0.80;99.90
28761;DHT22;15917;50.014;8.352;2024-01-10T10:37:54;-0.80;99.90
28761;DHT22;15917;50.014;8.352;2024-01-10T10:40:20;-0.80;99.90
28761;DHT22;15917;50.014;8.352;2024-01-10T10:42:53;-0.70;99.90
28761;DHT22;15917;50.014;8.352;2024-01-10T10:45:20;-0.70;99.90
28761;DHT22;15917;50.014;8.352;2024-01-10T10:47:56;-0.60;99.90
28761;DHT22;15917;50.014;8.352;2024-01-10T10:50:24;-0.50;99.90
28761;DHT22;15917;50.014;8.352;2024-01-10T10:52:50;-0.50;99.90
28761;DHT22;15917;50.014;8.352;2024-01-10T10:55:17;-0.50;99.90
28761;DHT22;15917;50.014;8.352;2024-01-10T10:57:48;-0.50;99.90
28761;DHT22;15917;50.014;8.352;2024-01-10T11:00:15;-0.50;99.90
28761;DHT22;15917;50.014;8.352;2024-01-10T11:02:41;-0.40;99.90
28761;DHT22;15917;50.014;8.352;2024-01-10T11:05:08;-0.40;99.90
28761;DHT22;15917;50.014;8.352;2024-01-10T11:07:38;-0.30;99.90
28761;DHT22;15917;50.014;8.352;2024-01-10T11:10:30;-0.20;99.90
28761;DHT22;15917;50.014;8.352;2024-01-10T11:19:11;0.00;99.90
28761;DHT22;15917;50.014;8.352;2024-01-10T11:24:40;0.30;99.90
28761;DHT22;15917;50.014;8.352;2024-01-10T11:27:13;0.40;99.90
28761;DHT22;15917;50.014;8.352;2024-01-10T11:29:39;0.50;99.90
28761;DHT22;15917;50.014;8.352;2024-01-10T11:32:16;0.60;99.90
28761;DHT22;15917;50.014;8.352;2024-01-10T11:34:54;0.70;99.90
28761;DHT22;15917;50.014;8.352;2024-01-10T11:37:43;0.80;99.90
28761;DHT22;15917;50.014;8.352;2024-01-10T11:40:09;2.30;99.90
28761;DHT22;15917;50.014;8.352;2024-01-10T11:42:44;4.00;99.90
28761;DHT22;15917;50.014;8.352;2024-01-10T11:48:02;2.90;99.90
28761;DHT22;15917;50.014;8.352;2024-01-10T11:50:28;2.50;99.90
28761;DHT22;15917;50.014;8.352;2024-01-10T11:52:56;2.10;99.90
28761;DHT22;15917;50.014;8.352;2024-01-10T11:55:50;1.80;99.90
28761;DHT22;15917;50.014;8.352;2024-01-10T11:58:17;1.70;99.90
28761;DHT22;15917;50.014;8.352;2024-01-10T12:00:43;1.60;99.90
28761;DHT22;15917;50.014;8.352;2024-01-10T12:03:11;1.40;99.90
28761;DHT22;15917;50.014;8.352;2024-01-10T12:05:36;1.30;99.90
28761;DHT22;15917;50.014;8.352;2024-01-10T12:08:07;1.40;99.90
28761;DHT22;15917;50.014;8.352;2024-01-10T12:10:45;1.40;99.90
28761;DHT22;15917;50.014;8.352;2024-01-10T12:13:11;1.60;99.90
28761;DHT22;15917;50.014;8.352;2024-01-10T12:15:37;1.70;99.90
28761;DHT22;15917;50.014;8.352;2024-01-10T12:18:02;1.90;99.90
28761;DHT22;15917;50.014;8.352;2024-01-10T12:20:29;1.80;99.90
28761;DHT22;15917;50.014;8.352;2024-01-10T12:22:55;1.90;99.90
28761;DHT22;15917;50.014;8.352;2024-01-10T12:25:21;2.20;99.90
28761;DHT22;15917;50.014;8.352;2024-01-10T12:27:46;2.20;99.90
28761;DHT22;15917;50.014;8.352;2024-01-10T12:30:12;2.30;99.90
28761;DHT22;15917;50.014;8.352;2024-01-10T12:32:37;2.50;99.90
28761;DHT22;15917;50.014;8.352;2024-01-10T12:35:04;2.90;99.90
28761;DHT22;15917;50.014;8.352;2024-01-10T12:37:31;3.40;99.90
28761;DHT22;15917;50.014;8.352;2024-01-10T12:39:57;3.80;99.90
28761;DHT22;15917;50.014;8.352;2024-01-10T12:42:23;4.30;99.90
28761;DHT22;15917;50.014;8.352;2024-01-10T12:44:49;4.80;99.90
28761;DHT22;15917;50.014;8.352;2024-01-10T12:47:19;5.20;99.90
28761;DHT22;15917;50.014;8.352;2024-01-10T12:49:45;5.40;99.90
28761;DHT22;15917;50.014;8.352;2024-01-10T12:52:12;5.50;99.90
28761;DHT22;15917;50.014;8.352;2024-01-10T12:54:41;5.60;99.90
28761;DHT22;15917;50.014;8.352;2024-01-10T12:57:07;6.00;99.50
28761;DHT22;15917;50.014;8.352;2024-01-10T12:59:33;6.10;98.60
28761;DHT22;15917;50.014;8.352;2024-01-10T13:01:59;6.40;97.30
28761;DHT22;15917;50.014;8.352;2024-01-10T13:04:25;6.60;96.10
28761;DHT22;15917;50.014;8.352;2024-01-10T13:06:51;6.50;95.70
28761;DHT22;15917;50.014;8.352;2024-01-10T13:09:16;6.30;95.60
28761;DHT22;15917;50.014;8.352;2024-01-10T13:11:42;6.00;95.80
28761;DHT22;15917;50.014;8.352;2024-01-10T13:14:08;5.80;96.10
28761;DHT22;15917;50.014;8.352;2024-01-10T13:16:35;5.50;96.10
28761;DHT22;15917;50.014;8.352;2024-01-10T13:19:00;5.30;96.70
28761;DHT22;15917;50.014;8.352;2024-01-10T13:21:26;5.30;97.20
28761;DHT22;15917;50.014;8.352;2024-01-10T13:23:52;5.20;97.30
28761;DHT22;15917;50.014;8.352;2024-01-10T13:26:17;4.80;97.40
28761;DHT22;15917;50.014;8.352;2024-01-10T13:28:43;4.80;97.80
28761;DHT22;15917;50.014;8.352;2024-01-10T13:31:09;4.70;97.70
28761;DHT22;15917;50.014;8.352;2024-01-10T13:33:35;4.70;98.10
28761;DHT22;15917;50.014;8.352;2024-01-10T13:36:03;4.70;98.10
28761;DHT22;15917;50.014;8.352;2024-01-10T13:38:30;4.80;97.60
28761;DHT22;15917;50.014;8.352;2024-01-10T13:40:56;4.60;97.30
28761;DHT22;15917;50.014;8.352;2024-01-10T13:43:22;4.50;97.50
28761;DHT22;15917;50.014;8.352;2024-01-10T13:45:47;4.50;97.80
28761;DHT22;15917;50.014;8.352;2024-01-10T13:48:13;4.40;98.10
28761;DHT22;15917;50.014;8.352;2024-01-10T13:50:39;4.40;98.50
28761;DHT22;15917;50.014;8.352;2024-01-10T13:53:04;4.30;98.20
28761;DHT22;15917;50.014;8.352;2024-01-10T13:55:31;4.30;98.20
28761;DHT22;15917;50.014;8.352;2024-01-10T13:57:56;4.30;97.80
28761;DHT22;15917;50.014;8.352;2024-01-10T14:00:23;4.00;97.90
28761;DHT22;15917;50.014;8.352;2024-01-10T14:02:48;3.90;98.50
28761;DHT22;15917;50.014;8.352;2024-01-10T14:05:15;3.80;98.70
28761;DHT22;15917;50.014;8.352;2024-01-10T14:07:40;3.70;98.90
28761;DHT22;15917;50.014;8.352;2024-01-10T14:10:10;3.60;99.70
28761;DHT22;15917;50.014;8.352;2024-01-10T14:12:36;3.60;99.80
28761;DHT22;15917;50.014;8.352;2024-01-10T14:15:02;3.30;99.90
28761;DHT22;15917;50.014;8.352;2024-01-10T14:17:29;3.10;99.90
28761;DHT22;15917;50.014;8.352;2024-01-10T14:19:55;2.90;99.90
28761;DHT22;15917;50.014;8.352;2024-01-10T14:22:21;2.80;99.90
28761;DHT22;15917;50.014;8.352;2024-01-10T14:24:49;2.60;99.90
28761;DHT22;15917;50.014;8.352;2024-01-10T14:27:15;2.40;99.90
28761;DHT22;15917;50.014;8.352;2024-01-10T14:29:40;2.30;99.90
28761;DHT22;15917;50.014;8.352;2024-01-10T14:32:06;2.10;99.90
28761;DHT22;15917;50.014;8.352;2024-01-10T14:34:31;1.90;99.90
28761;DHT22;15917;50.014;8.352;2024-01-10T14:36:57;1.80;99.90
28761;DHT22;15917;50.014;8.352;2024-01-10T14:39:23;1.70;99.90
28761;DHT22;15917;50.014;8.352;2024-01-10T14:41:49;1.60;99.90
28761;DHT22;15917;50.014;8.352;2024-01-10T14:44:15;1.70;99.90
28761;DHT22;15917;50.014;8.352;2024-01-10T14:46:40;1.70;99.90
28761;DHT22;15917;50.014;8.352;2024-01-10T14:49:06;1.80;99.90
28761;DHT22;15917;50.014;8.352;2024-01-10T14:51:32;1.70;99.90
28761;DHT22;15917;50.014;8.352;2024-01-10T14:53:58;1.80;99.90
28761;DHT22;15917;50.014;8.352;2024-01-10T14:56:24;1.90;99.90
28761;DHT22;15917;50.014;8.352;2024-01-10T14:58:49;1.90;99.90
28761;DHT22;15917;50.014;8.352;2024-01-10T15:01:17;2.00;99.90
28761;DHT22;15917;50.014;8.352;2024-01-10T15:03:42;1.90;99.90
28761;DHT22;15917;50.014;8.352;2024-01-10T15:06:08;1.90;99.90
28761;DHT22;15917;50.014;8.352;2024-01-10T15:08:34;2.40;99.90
28761;DHT22;15917;50.014;8.352;2024-01-10T15:11:00;2.40;99.90
28761;DHT22;15917;50.014;8.352;2024-01-10T15:13:26;2.30;99.90
28761;DHT22;15917;50.014;8.352;2024-01-10T15:15:52;2.20;99.90
28761;DHT22;15917;50.014;8.352;2024-01-10T15:18:17;2.20;99.90
28761;DHT22;15917;50.014;8.352;2024-01-10T15:20:45;2.20;99.90
28761;DHT22;15917;50.014;8.352;2024-01-10T15:23:11;2.10;99.90
28761;DHT22;15917;50.014;8.352;2024-01-10T15:25:36;2.10;99.90
28761;DHT22;15917;50.014;8.352;2024-01-10T15:28:02;2.10;99.90
28761;DHT22;15917;50.014;8.352;2024-01-10T15:30:29;2.10;99.90
28761;DHT22;15917;50.014;8.352;2024-01-10T15:32:55;2.30;99.90
28761;DHT22;15917;50.014;8.352;2024-01-10T15:35:20;2.30;99.90
28761;DHT22;15917;50.014;8.352;2024-01-10T15:37:46;2.30;99.90
28761;DHT22;15917;50.014;8.352;2024-01-10T15:40:12;2.40;99.90
28761;DHT22;15917;50.014;8.352;2024-01-10T15:42:39;2.40;99.90